Time;durP1;ratioP1;P1;durP2;ratioP2;P2;SDS_P1;SDS_P2;PMS_P1;PMS_P2;Temp;Humidity;BMP_temperature;BMP_pressure;BME280_temperature;BME280_humidity;BME280_pressure;Samples;Min_cycle;Max_cycle;Signal;HPM_P1;HPM_P2
2022/05/03 00:01:51;;;;;;;5.53;3.17;;;;;;;9.56;58.53;101830.78;7387951;19;20380;-61
2022/05/03 00:04:29;;;;;;;4.97;3.50;;;;;;;9.59;58.74;101830.69;7388433;19;20029;-62
2022/05/03 00:07:13;;;;;;;4.28;3.15;;;;;;;9.31;59.37;101826.09;7386151;19;20021;-58
2022/05/03 00:09:53;;;;;;;4.68;3.20;;;;;;;9.46;59.45;101825.75;7385411;19;20048;-59
2022/05/03 00:12:29;;;;;;;5.55;3.70;;;;;;;9.32;59.46;101823.44;7386632;19;20021;-59
2022/05/03 00:15:01;;;;;;;6.65;3.38;;;;;;;9.48;59.13;101815.25;7385319;19;20014;-59
2022/05/03 00:17:32;;;;;;;4.28;3.30;;;;;;;9.39;59.07;101812.84;7387476;19;20029;-59
2022/05/03 00:20:01;;;;;;;4.75;3.40;;;;;;;9.38;59.45;101813.75;7386147;19;20030;-57
2022/05/03 00:22:34;;;;;;;5.28;3.53;;;;;;;9.44;59.16;101814.47;7386744;19;20028;-60
2022/05/03 00:25:03;;;;;;;6.50;3.17;;;;;;;9.35;59.32;101819.91;7390679;19;20011;-61
2022/05/03 00:27:32;;;;;;;5.88;3.33;;;;;;;9.49;59.03;101814.34;7385981;19;20484;-59
2022/05/03 00:30:01;;;;;;;5.47;3.33;;;;;;;9.44;59.15;101818.81;7385297;19;20011;-57
2022/05/03 00:32:32;;;;;;;5.25;3.20;;;;;;;9.50;59.57;101819.53;7387671;19;20034;-58
2022/05/03 00:35:03;;;;;;;4.38;3.25;;;;;;;9.57;59.04;101814.16;7383240;19;20042;-60
2022/05/03 00:37:34;;;;;;;4.32;3.22;;;;;;;9.46;59.79;101814.44;7385363;19;20018;-61
2022/05/03 00:40:03;;;;;;;5.00;3.67;;;;;;;9.36;59.77;101811.16;7390222;19;20070;-60
2022/05/03 00:42:42;;;;;;;5.25;3.55;;;;;;;9.39;60.16;101802.41;7392724;19;20042;-60
2022/05/03 00:45:20;;;;;;;6.85;3.85;;;;;;;9.27;60.31;101807.00;7390714;19;20331;-59
2022/05/03 00:47:54;;;;;;;5.47;3.83;;;;;;;9.21;60.73;101804.50;7392499;19;20122;-59
2022/05/03 00:50:36;;;;;;;6.30;4.13;;;;;;;9.19;60.95;101806.31;7392367;19;20356;-59
2022/05/03 00:53:12;;;;;;;4.72;3.58;;;;;;;9.19;60.97;101806.31;7392691;19;20033;-58
2022/05/03 00:56:15;;;;;;;6.00;3.70;;;;;;;9.30;60.68;101806.09;7390632;19;20007;-58
2022/05/03 00:59:09;;;;;;;5.30;3.50;;;;;;;9.14;61.26;101801.19;7392334;19;20346;-57
2022/05/03 01:01:50;;;;;;;5.07;3.67;;;;;;;9.42;60.22;101807.53;7391653;19;20573;-57
2022/05/03 01:04:27;;;;;;;6.90;4.15;;;;;;;9.32;60.78;101810.34;7392930;19;20317;-59
2022/05/03 01:07:01;;;;;;;5.13;3.80;;;;;;;9.19;61.57;101808.94;7392526;19;20075;-58
2022/05/03 01:09:42;;;;;;;5.68;4.22;;;;;;;9.09;61.33;101808.28;7390847;19;20034;-58
2022/05/03 01:12:25;;;;;;;6.03;3.80;;;;;;;9.12;61.51;101805.59;7391964;19;20038;-57
2022/05/03 01:15:10;;;;;;;8.48;4.10;;;;;;;8.98;62.03;101805.91;7389516;19;20014;-58
2022/05/03 01:17:48;;;;;;;6.38;4.10;;;;;;;9.04;61.96;101804.03;7392295;19;20018;-61
2022/05/03 01:20:30;;;;;;;14.63;4.88;;;;;;;9.09;61.92;101810.03;7391492;19;20044;-58
2022/05/03 01:23:41;;;;;;;6.10;4.03;;;;;;;9.11;61.32;101797.78;7392732;19;20025;-60
2022/05/03 01:26:46;;;;;;;7.78;3.78;;;;;;;9.08;61.39;101801.31;7390206;19;20809;-60
2022/05/03 01:29:30;;;;;;;5.75;4.25;;;;;;;9.09;61.22;101797.81;7390288;19;20011;-61
2022/05/03 01:32:01;;;;;;;7.13;4.18;;;;;;;9.07;61.84;101799.63;7390144;19;20368;-61
2022/05/03 01:34:32;;;;;;;5.78;4.13;;;;;;;8.95;62.28;101805.94;7390021;19;20053;-61
2022/05/03 01:37:27;;;;;;;5.70;4.20;;;;;;;9.10;61.55;101807.38;7391781;19;20011;-61
2022/05/03 01:40:06;;;;;;;7.82;4.38;;;;;;;8.94;62.28;101805.97;7390332;19;20021;-59
2022/05/03 01:43:00;;;;;;;7.75;4.60;;;;;;;8.91;62.42;101796.47;7390951;19;20014;-59
2022/05/03 01:45:33;;;;;;;7.10;4.93;;;;;;;8.82;62.89;101805.34;7389737;19;20018;-60
2022/05/03 01:48:20;;;;;;;7.20;5.13;;;;;;;8.91;63.10;101791.25;7391205;19;20026;-61
2022/05/03 01:50:57;;;;;;;6.72;4.85;;;;;;;8.89;63.10;101793.03;7389756;19;20034;-61
2022/05/03 01:53:36;;;;;;;6.65;5.25;;;;;;;8.79;63.53;101789.75;7390290;19;20018;-61
2022/05/03 01:56:27;;;;;;;7.78;5.10;;;;;;;8.91;63.62;101793.88;7390120;19;20022;-61
2022/05/03 01:59:25;;;;;;;10.95;5.78;;;;;;;8.63;64.18;101799.66;7390319;19;20704;-61
2022/05/03 02:02:00;;;;;;;8.68;5.97;;;;;;;8.49;64.94;101796.47;7390194;19;20010;-61
2022/05/03 02:04:44;;;;;;;8.55;5.75;;;;;;;8.59;64.70;101798.00;7388411;19;20096;-61
2022/05/03 02:07:22;;;;;;;8.60;6.15;;;;;;;8.30;65.48;101796.78;7388619;19;20030;-61
2022/05/03 02:10:05;;;;;;;8.52;5.68;;;;;;;8.09;66.46;101792.81;7389111;19;20423;-58
2022/05/03 02:12:35;;;;;;;9.20;5.78;;;;;;;8.11;65.82;101798.88;7387777;19;20015;-60
2022/05/03 02:15:07;;;;;;;7.60;5.13;;;;;;;8.17;65.05;101799.63;7387964;19;20023;-61
2022/05/03 02:17:53;;;;;;;8.18;5.55;;;;;;;8.50;64.87;101798.19;7389494;19;20091;-60
2022/05/03 02:21:02;;;;;;;8.20;5.25;;;;;;;8.41;64.50;101799.19;7389164;19;20021;-61
2022/05/03 02:23:44;;;;;;;7.97;5.60;;;;;;;8.23;65.17;101794.31;7386781;19;20014;-60
2022/05/03 02:26:43;;;;;;;8.02;5.85;;;;;;;8.71;63.64;101796.91;7388513;19;20040;-60
2022/05/03 02:29:14;;;;;;;8.40;5.63;;;;;;;9.05;61.89;101798.78;7387947;19;20017;-59
2022/05/03 02:31:48;;;;;;;9.60;6.47;;;;;;;8.79;62.54;101788.88;7389176;19;20030;-62
2022/05/03 02:34:37;;;;;;;10.48;6.63;;;;;;;8.59;63.46;101799.75;7388404;19;20479;-58
2022/05/03 02:37:15;;;;;;;11.60;6.50;;;;;;;8.55;63.91;101801.56;7389631;19;20022;-59
2022/05/03 02:39:54;;;;;;;9.65;6.72;;;;;;;8.55;64.18;101804.16;7388115;19;20114;-60
2022/05/03 02:42:25;;;;;;;10.30;7.20;;;;;;;8.79;63.83;101804.56;7389366;19;20051;-60
2022/05/03 02:44:56;;;;;;;9.10;6.75;;;;;;;8.62;65.15;101804.91;7387814;19;20018;-60
2022/05/03 02:47:32;;;;;;;11.00;6.35;;;;;;;8.37;66.13;101802.75;7387032;19;20010;-60
2022/05/03 02:50:10;;;;;;;28.25;23.42;;;;;;;8.29;67.33;101800.28;7388246;19;20360;-58
2022/05/03 02:52:45;;;;;;;10.00;6.80;;;;;;;8.17;67.17;101797.03;7390146;19;20022;-58
2022/05/03 02:55:23;;;;;;;9.25;6.25;;;;;;;8.28;67.16;101800.31;7387201;19;20019;-57
2022/05/03 02:57:58;;;;;;;9.95;6.53;;;;;;;8.21;67.29;101789.13;7389117;19;20487;-61
2022/05/03 03:03:36;;;;;;;10.32;7.05;;;;;;;8.05;68.29;101790.28;7388052;19;20029;-58
2022/05/03 03:06:10;;;;;;;9.50;6.25;;;;;;;8.10;68.06;101793.69;7388304;19;20518;-60
2022/05/03 03:08:46;;;;;;;10.50;7.10;;;;;;;8.13;67.65;101786.66;7388822;19;20025;-60
2022/05/03 03:11:26;;;;;;;10.40;6.30;;;;;;;8.02;68.46;101792.97;7388246;19;20511;-59
2022/05/03 03:14:11;;;;;;;10.63;6.90;;;;;;;8.03;69.12;101799.91;7387250;19;20018;-60
2022/05/03 03:16:51;;;;;;;11.48;7.05;;;;;;;7.95;68.49;101795.69;7388025;19;20011;-58
2022/05/03 03:19:36;;;;;;;9.73;6.80;;;;;;;7.77;69.21;101801.22;7385502;19;20025;-58
2022/05/03 03:22:14;;;;;;;10.77;6.93;;;;;;;8.03;68.87;101795.53;7388341;19;20022;-57
2022/05/03 03:24:43;;;;;;;10.50;6.70;;;;;;;8.01;68.31;101799.06;7386304;19;20624;-58
2022/05/03 03:27:13;;;;;;;9.80;6.40;;;;;;;8.09;68.35;101800.66;7386634;19;20403;-60
2022/05/03 03:29:44;;;;;;;10.10;6.72;;;;;;;8.12;67.95;101794.50;7389617;19;20011;-58
2022/05/03 03:32:12;;;;;;;9.82;6.57;;;;;;;8.03;67.41;101789.47;7388320;19;20400;-58
2022/05/03 03:34:44;;;;;;;10.32;6.95;;;;;;;8.10;67.41;101797.16;7386492;19;20032;-61
2022/05/03 03:37:18;;;;;;;11.52;7.15;;;;;;;8.03;67.43;101799.91;7387803;19;20089;-56
2022/05/03 03:39:47;;;;;;;10.70;6.97;;;;;;;8.00;68.15;101794.75;7386573;19;20081;-56
2022/05/03 03:42:16;;;;;;;10.02;6.78;;;;;;;8.04;67.16;101793.78;7387484;19;20513;-59
2022/05/03 03:44:45;;;;;;;14.07;7.50;;;;;;;8.06;68.16;101798.09;7386262;19;20023;-59
2022/05/03 03:47:15;;;;;;;10.48;7.40;;;;;;;8.36;66.69;101795.81;7386972;19;20019;-59
2022/05/03 03:49:45;;;;;;;12.48;7.20;;;;;;;8.29;67.03;101795.06;7387335;19;20468;-59
2022/05/03 03:52:16;;;;;;;10.13;6.47;;;;;;;8.37;66.35;101794.03;7387600;19;20011;-56
2022/05/03 03:54:46;;;;;;;13.40;7.25;;;;;;;8.28;66.47;101795.97;7385907;19;20023;-56
2022/05/03 03:57:16;;;;;;;10.25;6.60;;;;;;;8.25;66.42;101800.38;7387472;19;20015;-59
2022/05/03 03:59:45;;;;;;;9.90;6.72;;;;;;;8.33;66.25;101801.09;7387136;19;20022;-58
2022/05/03 04:02:14;;;;;;;9.93;6.47;;;;;;;8.27;66.24;101796.84;7387905;19;20114;-59
2022/05/03 04:04:45;;;;;;;161.98;16.67;;;;;;;8.12;67.37;101799.72;7386873;19;20021;-59
2022/05/03 04:07:17;;;;;;;8.95;6.55;;;;;;;8.15;67.16;101794.44;7386691;19;20014;-59
2022/05/03 04:09:45;;;;;;;10.25;6.90;;;;;;;8.33;66.51;101798.47;7388259;19;20126;-58
2022/05/03 04:12:14;;;;;;;12.38;6.60;;;;;;;8.23;66.84;101789.94;7388391;19;20023;-58
2022/05/03 04:14:44;;;;;;;12.52;7.15;;;;;;;8.23;66.96;101791.72;7391560;19;20449;-59
2022/05/03 04:17:12;;;;;;;11.70;7.00;;;;;;;8.23;67.00;101794.31;7395766;19;20438;-59
2022/05/03 04:19:42;;;;;;;10.20;7.13;;;;;;;8.25;67.18;101790.81;7395108;19;20017;-60
2022/05/03 04:22:30;;;;;;;11.88;6.90;;;;;;;8.14;67.71;101792.75;7396286;19;20098;-60
2022/05/03 04:25:00;;;;;;;10.10;7.00;;;;;;;8.00;68.52;101800.81;7391997;19;20021;-60
2022/05/03 04:27:29;;;;;;;12.80;7.43;;;;;;;8.02;68.58;101798.19;7393029;19;20022;-59
2022/05/03 04:29:59;;;;;;;11.45;7.55;;;;;;;8.10;68.30;101801.53;7394220;19;20015;-60
2022/05/03 04:32:30;;;;;;;15.23;7.13;;;;;;;8.06;68.68;101816.38;7395329;19;20021;-58
2022/05/03 04:34:59;;;;;;;10.85;7.45;;;;;;;8.05;68.49;101805.94;7393114;19;20054;-60
2022/05/03 04:37:31;;;;;;;11.40;7.95;;;;;;;8.05;68.50;101809.44;7395462;19;20019;-59
2022/05/03 04:40:00;;;;;;;14.07;8.23;;;;;;;7.90;69.37;101810.56;7394798;19;20010;-60
2022/05/03 04:42:29;;;;;;;12.20;7.68;;;;;;;7.90;69.15;101807.09;7395403;19;20021;-61
2022/05/03 04:44:57;;;;;;;12.25;8.13;;;;;;;8.02;68.82;101814.69;7391084;19;20030;-60
2022/05/03 04:47:26;;;;;;;11.15;7.63;;;;;;;8.04;68.59;101806.84;7393509;19;20025;-60
2022/05/03 04:49:55;;;;;;;22.92;10.00;;;;;;;8.07;68.50;101820.69;7394830;19;20019;-60
2022/05/03 04:52:24;;;;;;;12.32;8.15;;;;;;;8.17;67.96;101821.41;7395900;19;20440;-60
2022/05/03 04:54:55;;;;;;;32.45;9.88;;;;;;;8.14;68.09;101826.69;7392921;19;20026;-59
2022/05/03 04:57:24;;;;;;;15.48;7.70;;;;;;;8.00;68.64;101828.69;7394913;19;20021;-60
2022/05/03 04:59:53;;;;;;;9.85;7.57;;;;;;;7.96;68.69;101823.50;7393839;19;20118;-60
2022/05/03 05:02:22;;;;;;;12.32;8.52;;;;;;;8.04;68.65;101838.16;7395046;19;20498;-59
2022/05/03 05:04:51;;;;;;;14.38;8.70;;;;;;;7.79;70.07;101836.84;7392293;19;20019;-59
2022/05/03 05:07:20;;;;;;;13.18;8.23;;;;;;;7.67;70.50;101834.41;7392992;19;20011;-61
2022/05/03 05:12:33;;;;;;;11.77;7.70;;;;;;;7.76;71.20;101834.25;7394704;19;20078;-60
2022/05/03 05:15:02;;;;;;;13.43;7.93;;;;;;;7.88;71.05;101845.38;7392007;19;20025;-60
2022/05/03 05:17:31;;;;;;;10.68;7.10;;;;;;;8.06;69.99;101839.00;7393645;19;20007;-60
2022/05/03 05:20:00;;;;;;;11.63;8.00;;;;;;;7.95;70.43;101840.06;7393540;19;20014;-60
2022/05/03 05:22:29;;;;;;;12.10;8.05;;;;;;;7.92;70.88;101845.34;7394562;19;20502;-60
2022/05/03 05:24:57;;;;;;;12.82;7.70;;;;;;;8.12;70.19;101845.00;7390182;19;20464;-60
2022/05/03 05:27:26;;;;;;;10.73;7.53;;;;;;;8.23;70.51;101844.78;7392790;19;20015;-59
2022/05/03 05:29:58;;;;;;;27.73;9.02;;;;;;;8.39;68.99;101845.34;7392929;19;20014;-59
2022/05/03 05:32:27;;;;;;;27.83;9.43;;;;;;;8.48;68.78;101846.97;7393763;19;20337;-61
2022/05/03 05:34:56;;;;;;;16.00;8.18;;;;;;;8.41;69.25;101847.94;7391734;19;20476;-61
2022/05/03 05:37:24;;;;;;;14.50;8.20;;;;;;;8.63;68.03;101844.06;7394519;19;20018;-60
2022/05/03 05:39:53;;;;;;;11.25;6.95;;;;;;;8.81;67.16;101836.75;7394144;19;20341;-60
2022/05/03 05:42:22;;;;;;;10.95;7.10;;;;;;;8.87;67.33;101841.88;7395101;19;20010;-60
2022/05/03 05:44:51;;;;;;;15.25;6.80;;;;;;;9.11;65.47;101839.59;7391354;19;20018;-59
2022/05/03 05:47:23;;;;;;;9.90;6.88;;;;;;;8.93;66.21;101841.72;7389933;19;20018;-60
2022/05/03 05:49:52;;;;;;;26.17;7.80;;;;;;;9.23;62.72;101841.13;7391478;19;20316;-60
2022/05/03 05:55:03;;;;;;;7.43;4.57;;;;;;;9.46;57.39;101840.59;7390685;19;20026;-60
2022/05/03 05:57:31;;;;;;;18.58;4.43;;;;;;;9.46;57.86;101845.81;7392479;19;20317;-60
2022/05/03 06:00:00;;;;;;;8.35;4.07;;;;;;;9.52;56.79;101838.66;7392008;19;20018;-61
2022/05/03 06:02:32;;;;;;;15.80;4.00;;;;;;;9.59;56.13;101842.00;7393289;19;20494;-61
2022/05/03 06:05:01;;;;;;;6.53;3.50;;;;;;;9.71;56.69;101843.47;7391284;19;20030;-60
2022/05/03 06:07:30;;;;;;;6.82;3.25;;;;;;;9.81;54.77;101850.19;7392027;19;20011;-58
2022/05/03 06:09:59;;;;;;;19.65;4.05;;;;;;;9.82;55.69;101845.84;7391370;19;20495;-60
2022/05/03 06:12:28;;;;;;;5.95;3.00;;;;;;;9.91;54.34;101849.97;7390821;19;20061;-60
2022/05/03 06:14:57;;;;;;;6.85;3.40;;;;;;;9.93;53.64;101848.19;7391436;19;20019;-58
2022/05/03 06:17:26;;;;;;;4.13;2.95;;;;;;;9.94;52.10;101849.91;7392980;19;20022;-59
2022/05/03 06:19:57;;;;;;;10.50;3.78;;;;;;;10.19;51.25;101850.16;7391924;19;20018;-60
2022/05/03 06:22:26;;;;;;;5.88;2.85;;;;;;;10.17;50.33;101850.19;7393002;19;20006;-59
2022/05/03 06:24:55;;;;;;;4.70;2.75;;;;;;;10.33;52.09;101855.00;7389994;19;20022;-60
2022/05/03 06:27:24;;;;;;;10.25;2.80;;;;;;;10.45;50.29;101859.13;7391377;19;20019;-60
2022/05/03 06:29:53;;;;;;;3.78;2.00;;;;;;;10.34;48.57;101849.75;7393012;19;20045;-58
2022/05/03 06:32:21;;;;;;;3.83;1.80;;;;;;;10.52;49.34;101844.94;7391458;19;20498;-59
2022/05/03 06:34:50;;;;;;;12.65;2.42;;;;;;;10.58;49.54;101852.63;7391314;19;20014;-60
2022/05/03 06:37:22;;;;;;;4.07;2.17;;;;;;;10.47;46.27;101850.28;7391450;19;20022;-60
2022/05/03 06:39:51;;;;;;;6.95;2.05;;;;;;;10.48;46.84;101845.91;7393176;19;20022;-61
2022/05/03 06:42:19;;;;;;;5.18;2.22;;;;;;;10.62;47.10;101850.78;7393371;19;20010;-58
2022/05/03 06:44:48;;;;;;;5.97;2.20;;;;;;;10.73;48.59;101857.44;7391378;19;20029;-58
2022/05/03 06:47:18;;;;;;;7.50;3.42;;;;;;;10.80;49.20;101847.63;7391499;19;20019;-59
2022/05/03 06:49:47;;;;;;;7.50;2.70;;;;;;;10.97;48.65;101848.91;7391296;19;20329;-61
2022/05/03 06:52:16;;;;;;;18.60;3.95;;;;;;;10.98;49.42;101856.72;7391599;19;20015;-59
2022/05/03 06:54:47;;;;;;;23.38;4.15;;;;;;;11.02;49.90;101858.38;7390057;19;20098;-59
2022/05/03 06:57:16;;;;;;;7.82;3.78;;;;;;;11.01;50.46;101855.78;7391943;19;20030;-60
2022/05/03 06:59:45;;;;;;;5.22;2.80;;;;;;;11.10;51.29;101863.38;7390896;19;20018;-56
2022/05/03 07:02:14;;;;;;;9.45;3.28;;;;;;;11.21;51.06;101857.81;7391108;19;20114;-59
2022/05/03 07:04:46;;;;;;;7.15;3.72;;;;;;;11.38;50.28;101854.69;7390030;19;20018;-61
2022/05/03 07:07:15;;;;;;;7.28;3.60;;;;;;;11.38;51.30;101855.53;7391060;19;20385;-59
2022/05/03 07:09:44;;;;;;;6.95;3.70;;;;;;;11.52;51.23;101856.84;7391769;19;20018;-59
2022/05/03 07:12:16;;;;;;;6.40;4.10;;;;;;;11.67;51.25;101861.63;7390053;19;20060;-60
2022/05/03 07:14:45;;;;;;;6.88;4.70;;;;;;;11.72;50.76;101857.09;7389722;19;20476;-58
2022/05/03 07:22:45;;;;;;;6.57;4.82;;;;;;;11.75;51.44;101856.13;7390638;19;20021;-60
2022/05/03 07:22:50;;;;;;;39.58;6.78;;;;;;;11.99;50.50;101859.72;7390876;19;20739;-59
2022/05/03 07:25:20;;;;;;;7.03;4.55;;;;;;;11.88;51.04;101851.34;7389039;19;20018;-60
2022/05/03 07:27:51;;;;;;;7.22;4.57;;;;;;;12.10;51.14;101856.75;7389300;19;20018;-60
2022/05/03 07:30:20;;;;;;;7.22;5.30;;;;;;;12.32;50.88;101856.00;7392809;19;20027;-59
2022/05/03 07:32:50;;;;;;;10.35;6.00;;;;;;;12.41;50.92;101859.19;7393825;19;20026;-58
2022/05/03 07:35:19;;;;;;;114.00;12.70;;;;;;;12.49;51.64;101863.31;7394817;19;20018;-60
2022/05/03 07:37:48;;;;;;;10.25;5.95;;;;;;;12.56;50.53;101860.38;7396735;19;20018;-60
2022/05/03 07:40:16;;;;;;;13.60;6.20;;;;;;;12.51;51.22;101864.97;7397231;19;20095;-55
2022/05/03 07:42:45;;;;;;;10.35;5.38;;;;;;;12.39;50.83;101862.78;7397968;19;20017;-61
2022/05/03 07:45:17;;;;;;;7.82;5.25;;;;;;;12.56;51.50;101859.53;7392099;19;20022;-55
2022/05/03 07:47:47;;;;;;;10.40;5.87;;;;;;;12.88;50.56;101874.16;7393013;19;20071;-60
2022/05/03 07:50:16;;;;;;;9.07;5.40;;;;;;;12.81;50.59;101877.94;7398018;19;20034;-56
2022/05/03 07:52:45;;;;;;;9.13;6.30;;;;;;;12.92;50.26;101877.53;7398777;19;20357;-60
2022/05/03 07:55:14;;;;;;;8.80;6.22;;;;;;;12.95;50.96;101874.78;7394733;19;20022;-59
2022/05/03 07:57:43;;;;;;;8.75;5.90;;;;;;;13.04;50.99;101877.06;7396891;19;20030;-60
2022/05/03 08:00:13;;;;;;;7.13;5.97;;;;;;;13.23;50.14;101873.75;7395641;19;20022;-61
2022/05/03 08:02:44;;;;;;;8.02;5.80;;;;;;;13.05;51.03;101875.28;7396503;19;20021;-59
2022/05/03 08:05:13;;;;;;;13.15;7.05;;;;;;;13.12;51.25;101875.03;7394164;19;20030;-60
2022/05/03 08:07:42;;;;;;;11.48;6.45;;;;;;;12.92;51.55;101867.00;7395363;19;20015;-59
2022/05/03 08:10:12;;;;;;;10.93;7.03;;;;;;;13.30;51.57;101870.81;7396108;19;20014;-60
2022/05/03 08:12:41;;;;;;;9.80;6.50;;;;;;;13.40;51.19;101863.44;7396132;19;20021;-59
2022/05/03 08:15:11;;;;;;;9.80;6.63;;;;;;;13.51;50.04;101870.94;7366920;19;20014;-60
2022/05/03 08:17:39;;;;;;;10.32;6.90;;;;;;;13.31;51.72;101863.75;7394205;19;20018;-60
2022/05/03 08:20:13;;;;;;;9.15;6.97;;;;;;;13.52;51.30;101862.09;7394564;19;20015;-59
2022/05/03 08:22:42;;;;;;;12.07;6.88;;;;;;;13.56;51.22;101870.75;7393881;19;20341;-57
2022/05/03 08:25:12;;;;;;;8.90;6.97;;;;;;;13.51;51.17;101868.28;7393359;19;20475;-60
2022/05/03 08:27:41;;;;;;;83.47;16.17;;;;;;;13.65;51.29;101870.34;7393306;19;20014;-59
2022/05/03 08:30:12;;;;;;;12.65;7.13;;;;;;;13.65;51.54;101873.00;7395217;19;20023;-61
2022/05/03 08:32:41;;;;;;;10.73;7.20;;;;;;;13.76;51.45;101875.19;7395604;19;20022;-61
2022/05/03 08:35:12;;;;;;;17.08;7.68;;;;;;;13.99;51.46;101868.97;7392687;19;20026;-59
2022/05/03 08:43:04;;;;;;;12.10;7.32;;;;;;;14.45;50.78;101871.44;7395213;19;20092;-60
2022/05/03 08:45:34;;;;;;;12.27;7.78;;;;;;;14.51;50.42;101860.59;7394932;19;20126;-60
2022/05/03 08:48:03;;;;;;;10.23;7.30;;;;;;;14.05;51.80;101868.72;7393463;19;20022;-60
2022/05/03 08:50:36;;;;;;;10.52;7.53;;;;;;;14.06;52.17;101864.31;7394010;19;20010;-60
2022/05/03 08:53:07;;;;;;;14.10;7.35;;;;;;;14.82;51.02;101864.56;7394661;19;20015;-61
2022/05/03 08:55:38;;;;;;;14.13;8.38;;;;;;;14.92;50.38;101870.28;7394069;19;20052;-60
2022/05/03 08:58:07;;;;;;;12.93;7.70;;;;;;;14.85;50.75;101867.03;7394952;19;20018;-61
2022/05/03 09:00:36;;;;;;;12.02;8.18;;;;;;;14.91;50.34;101866.75;7391958;19;20026;-60
2022/05/03 09:03:06;;;;;;;13.55;8.15;;;;;;;14.85;50.40;101875.81;7393337;19;20022;-57
2022/05/03 09:05:39;;;;;;;10.77;7.70;;;;;;;14.62;51.30;101866.28;7394723;19;20026;-60
2022/05/03 09:08:12;;;;;;;11.95;7.88;;;;;;;14.75;50.74;101876.31;7393268;19;20030;-59
2022/05/03 09:10:44;;;;;;;14.80;8.35;;;;;;;15.01;50.61;101878.59;7392899;19;20022;-61
2022/05/03 09:13:18;;;;;;;;;;;;;;;15.52;49.89;101873.59;7394623;19;20053;-61
2022/05/03 09:15:50;;;;;;;10.07;6.72;;;;;;;15.71;49.39;101865.59;7393332;19;20001;-58
2022/05/03 09:18:24;;;;;;;12.05;8.18;;;;;;;14.75;50.94;101866.59;7394016;19;20029;-61
2022/05/03 09:23:51;;;;;;;10.40;7.82;;;;;;;14.50;51.97;101864.19;7392887;19;20066;-60
2022/05/03 09:26:21;;;;;;;34.80;8.70;;;;;;;14.59;51.59;101866.41;7394972;19;20018;-61
2022/05/03 09:28:53;;;;;;;10.23;7.68;;;;;;;14.63;51.76;101862.75;7392705;19;20010;-63
2022/05/03 09:31:30;;;;;;;9.77;8.20;;;;;;;14.43;52.41;101863.59;7405959;19;20058;-63
2022/05/03 09:34:01;;;;;;;8.35;5.60;;;;;;;14.60;52.37;101867.25;7407101;19;20039;-63
2022/05/03 09:36:43;;;;;;;8.30;6.00;;;;;;;14.56;52.57;101863.91;7395719;19;20090;-63
2022/05/03 09:39:24;;;;;;;12.15;6.72;;;;;;;14.53;53.08;101872.81;7392493;19;20019;-63
2022/05/03 09:42:07;;;;;;;12.50;7.75;;;;;;;14.48;52.90;101858.94;7393964;19;20026;-63
2022/05/03 09:44:36;;;;;;;16.65;8.20;;;;;;;14.74;53.12;101861.41;7392516;19;20019;-63
2022/05/03 09:47:09;;;;;;;16.17;8.05;;;;;;;14.75;52.81;101861.31;7392786;19;20011;-64
2022/05/03 09:49:39;;;;;;;;;;;;;;;14.91;52.68;101855.34;7390210;19;20114;-64
2022/05/03 09:52:12;;;;;;;28.35;8.48;;;;;;;14.92;53.02;101860.56;7392141;19;19929;-61
2022/05/03 09:54:51;;;;;;;12.82;9.52;;;;;;;14.53;52.75;101864.88;7393325;19;20010;-64
2022/05/03 09:57:23;;;;;;;13.15;9.90;;;;;;;14.43;53.70;101862.72;7391018;19;20033;-62
2022/05/03 09:59:54;;;;;;;13.27;10.23;;;;;;;13.95;54.65;101859.47;7388903;19;20053;-62
2022/05/03 10:02:24;;;;;;;15.00;9.70;;;;;;;14.49;54.11;101860.66;7391999;19;20123;-62
2022/05/03 10:04:56;;;;;;;16.40;10.93;;;;;;;14.47;53.95;101865.16;7390851;19;20010;-62
2022/05/03 10:07:29;;;;;;;15.43;10.85;;;;;;;14.49;54.03;101863.31;7392250;19;20094;-64
2022/05/03 10:09:57;;;;;;;;;;;;;;;14.47;54.33;101859.00;7390249;19;20482;-62
2022/05/03 10:12:26;;;;;;;42.58;12.50;;;;;;;14.48;53.90;101858.94;7391896;19;19930;-63
2022/05/03 10:14:55;;;;;;;39.47;11.52;;;;;;;14.69;54.05;101853.69;7392024;19;20010;-62
2022/05/03 10:23:01;;;;;;;33.88;14.07;;;;;;;15.43;53.06;101860.84;7390257;19;20022;-63
2022/05/03 10:25:31;;;;;;;30.02;12.55;;;;;;;15.16;52.74;101860.38;7391541;19;20360;-62
2022/05/03 10:28:00;;;;;;;13.60;10.75;;;;;;;15.15;52.67;101856.84;7388765;19;20018;-63
2022/05/03 10:30:32;;;;;;;11.63;9.73;;;;;;;15.33;52.85;101852.50;7388765;19;20015;-62
2022/05/03 10:33:31;;;;;;;14.98;9.82;;;;;;;15.13;53.72;101849.91;7391366;19;20720;-62
2022/05/03 10:36:01;;;;;;;20.15;9.63;;;;;;;15.17;53.83;101851.50;7391257;19;20046;-63
2022/05/03 10:38:44;;;;;;;11.23;8.60;;;;;;;15.35;53.91;101845.34;7390334;19;20340;-62
2022/05/03 10:41:14;;;;;;;14.43;9.73;;;;;;;15.26;54.19;101848.44;7389464;19;20108;-62
2022/05/03 10:43:43;;;;;;;13.35;9.82;;;;;;;15.18;53.75;101850.56;7391198;19;20336;-63
2022/05/03 10:46:14;;;;;;;13.15;9.50;;;;;;;14.97;54.50;101842.75;7388861;19;20396;-62
2022/05/03 10:48:43;;;;;;;74.30;13.48;;;;;;;15.15;55.69;101843.66;7389885;19;20015;-65
2022/05/03 10:51:15;;;;;;;28.13;11.45;;;;;;;14.99;55.48;101835.59;7389718;19;20019;-64
2022/05/03 10:54:02;;;;;;;45.90;13.93;;;;;;;15.39;54.45;101835.50;7391248;19;20019;-62
2022/05/03 10:56:31;;;;;;;24.50;12.23;;;;;;;15.56;54.91;101834.69;7390357;19;20010;-62
2022/05/03 10:59:12;;;;;;;12.18;8.65;;;;;;;16.41;51.40;101836.53;7391017;19;20083;-64
2022/05/03 11:02:09;;;;;;;11.15;8.50;;;;;;;15.98;51.57;101836.13;7392297;19;20014;-64
2022/05/03 11:05:14;;;;;;;9.57;7.45;;;;;;;15.46;53.00;101830.75;7393709;19;20046;-63
2022/05/03 11:07:43;;;;;;;14.25;9.30;;;;;;;16.01;52.41;101827.19;7418928;19;20031;-63
2022/05/03 11:10:51;;;;;;;9.73;8.05;;;;;;;16.68;49.08;101816.66;7391057;19;20021;-60
2022/05/03 11:13:44;;;;;;;10.10;7.38;;;;;;;16.13;50.52;101815.97;7390163;19;20015;-63
2022/05/03 11:16:24;;;;;;;13.38;7.05;;;;;;;15.56;51.40;101814.38;7391082;19;20014;-62
2022/05/03 11:18:53;;;;;;;19.45;7.35;;;;;;;15.99;52.58;101815.81;7390377;19;20021;-61
2022/05/03 11:21:23;;;;;;;11.75;8.32;;;;;;;16.08;49.86;101807.44;7389801;19;20017;-63
2022/05/03 11:23:52;;;;;;;12.95;8.18;;;;;;;16.26;50.27;101808.25;7389720;19;20019;-62
2022/05/03 11:26:23;;;;;;;8.52;6.72;;;;;;;16.51;49.28;101809.63;7390288;19;20029;-63
2022/05/03 11:28:55;;;;;;;21.63;5.90;;;;;;;17.09;46.72;101801.16;7389833;19;20743;-63
2022/05/03 11:31:25;;;;;;;;;;;;;;;16.98;46.44;101797.38;7391098;19;20014;-63
2022/05/03 11:33:55;;;;;;;6.22;4.30;;;;;;;16.55;48.09;101800.59;7387678;19;19915;-63
2022/05/03 11:36:25;;;;;;;8.18;5.30;;;;;;;16.50;47.87;101800.81;7389596;19;20081;-63
2022/05/03 11:38:57;;;;;;;16.52;6.07;;;;;;;16.16;49.35;101799.97;7390038;19;20391;-63
2022/05/03 11:41:28;;;;;;;9.50;5.50;;;;;;;16.00;49.19;101797.25;7389473;19;20010;-63
2022/05/03 11:43:59;;;;;;;8.27;6.18;;;;;;;15.75;50.17;101793.19;7389510;19;20344;-63
2022/05/03 11:46:28;;;;;;;7.38;5.40;;;;;;;16.34;48.84;101792.84;7389182;19;20015;-63
2022/05/03 11:49:01;;;;;;;7.50;5.10;;;;;;;17.37;47.88;101791.63;7388745;19;20549;-62
2022/05/03 11:57:08;;;;;;;12.18;7.75;;;;;;;18.06;47.06;101777.94;7389621;19;20014;-61
2022/05/03 11:59:41;;;;;;;34.00;8.13;;;;;;;18.90;45.89;101777.16;7387210;19;20021;-62
2022/05/03 12:02:17;;;;;;;20.90;8.65;;;;;;;18.81;45.95;101775.03;7388747;19;20015;-63
2022/05/03 12:05:14;;;;;;;8.48;7.40;;;;;;;17.30;47.61;101769.09;7386923;19;20019;-63
2022/05/03 12:07:45;;;;;;;9.63;7.50;;;;;;;17.10;47.73;101767.56;7389052;19;20340;-63
2022/05/03 12:10:19;;;;;;;17.23;8.30;;;;;;;16.85;49.87;101765.41;7385273;19;20022;-60
2022/05/03 12:12:51;;;;;;;15.63;7.90;;;;;;;16.34;50.01;101770.84;7388360;19;20022;-65
2022/05/03 12:15:28;;;;;;;25.88;8.95;;;;;;;16.19;50.75;101781.28;7388088;19;20014;-62
2022/05/03 12:18:02;;;;;;;9.95;8.18;;;;;;;16.06;49.84;101775.78;7388330;19;20019;-62
2022/05/03 12:20:43;;;;;;;11.40;7.60;;;;;;;15.93;51.05;101774.69;7384477;19;20015;-61
2022/05/03 12:23:18;;;;;;;191.43;20.15;;;;;;;15.94;51.66;101773.78;7388315;19;20022;-60
2022/05/03 12:25:50;;;;;;;11.73;8.02;;;;;;;15.82;51.59;101769.97;7388304;19;20023;-64